createdAt,value
2022-12-31T00:01:36.180Z,9.97
2022-12-31T00:06:42.819Z,10.05
2022-12-31T00:11:48.268Z,10.01
2022-12-31T00:16:53.971Z,10.04
2022-12-31T00:21:59.480Z,9.99
2022-12-31T00:27:04.931Z,10.06
2022-12-31T00:32:10.463Z,10.18
2022-12-31T00:37:16.007Z,10.22
2022-12-31T00:42:21.469Z,10.29
2022-12-31T00:47:27.033Z,10.30
2022-12-31T00:52:32.413Z,10.24
2022-12-31T00:57:37.873Z,10.31
2022-12-31T01:02:43.536Z,10.37
2022-12-31T01:07:49.402Z,10.35
2022-12-31T01:12:54.786Z,10.40
2022-12-31T01:18:00.320Z,10.41
2022-12-31T01:23:06.556Z,10.47
2022-12-31T01:28:12.016Z,10.51
2022-12-31T01:33:17.565Z,10.60
2022-12-31T01:38:23.028Z,10.61
2022-12-31T01:43:48.284Z,10.64
2022-12-31T01:48:56.696Z,10.69
2022-12-31T01:54:04.992Z,10.76
2022-12-31T01:59:13.978Z,10.85
2022-12-31T02:04:20.106Z,10.80
2022-12-31T02:09:25.685Z,10.79
2022-12-31T02:14:40.210Z,10.89
2022-12-31T02:20:17.550Z,10.94
2022-12-31T02:25:54.648Z,10.97
2022-12-31T02:31:03.143Z,10.98
2022-12-31T02:36:12.115Z,10.93
2022-12-31T02:41:38.197Z,10.93
2022-12-31T02:46:46.773Z,10.97
2022-12-31T02:52:00.452Z,10.99
2022-12-31T02:57:30.976Z,11.03
2022-12-31T03:02:39.084Z,11.05
2022-12-31T03:07:46.364Z,11.08
2022-12-31T03:12:52.303Z,11.15
2022-12-31T03:18:15.944Z,11.13
2022-12-31T03:23:33.888Z,11.16
2022-12-31T03:28:41.942Z,11.17
2022-12-31T03:33:47.423Z,11.24
2022-12-31T03:38:54.082Z,11.26
2022-12-31T03:44:00.544Z,11.31
2022-12-31T03:49:06.024Z,11.30
2022-12-31T03:54:11.482Z,11.36
2022-12-31T03:59:16.937Z,11.34
2022-12-31T04:04:22.567Z,11.35
2022-12-31T04:09:28.281Z,11.39
2022-12-31T04:14:33.884Z,11.44
2022-12-31T04:19:39.334Z,11.49
2022-12-31T04:24:44.969Z,11.52
2022-12-31T04:29:50.498Z,11.55
2022-12-31T04:34:55.886Z,11.63
2022-12-31T04:40:05.780Z,11.68
2022-12-31T04:45:09.744Z,11.78
2022-12-31T04:50:15.485Z,11.76
2022-12-31T04:55:21.001Z,11.81
2022-12-31T05:00:26.397Z,11.81
2022-12-31T05:05:32.006Z,11.83
2022-12-31T05:10:38.429Z,11.86
2022-12-31T05:15:44.256Z,11.81
2022-12-31T05:20:49.992Z,11.79
2022-12-31T05:25:56.270Z,11.83
2022-12-31T05:31:01.778Z,11.82
2022-12-31T05:36:07.911Z,11.82
2022-12-31T05:41:13.310Z,11.84
2022-12-31T05:46:18.709Z,11.87
2022-12-31T05:51:24.161Z,11.90
2022-12-31T05:56:29.770Z,11.95
2022-12-31T06:01:35.288Z,11.89
2022-12-31T06:06:40.855Z,12.14
2022-12-31T06:11:47.231Z,12.40
2022-12-31T06:16:52.617Z,12.60
2022-12-31T06:21:58.219Z,12.84
2022-12-31T06:27:04.684Z,12.97
2022-12-31T06:32:10.220Z,12.69
2022-12-31T06:37:15.613Z,12.49
2022-12-31T06:42:21.104Z,13.58
2022-12-31T06:47:27.205Z,13.08
2022-12-31T06:52:32.735Z,12.78
2022-12-31T06:57:38.801Z,12.48
2022-12-31T07:03:16.954Z,12.39
2022-12-31T07:08:42.256Z,12.32
2022-12-31T07:13:58.993Z,12.27
2022-12-31T07:19:16.506Z,12.26
2022-12-31T07:24:23.206Z,12.21
2022-12-31T07:29:49.894Z,12.17
2022-12-31T07:35:15.130Z,12.14
2022-12-31T07:40:35.680Z,12.18
2022-12-31T07:45:53.238Z,12.25
2022-12-31T07:51:00.039Z,12.24
2022-12-31T07:56:09.017Z,12.24
2022-12-31T08:01:17.948Z,12.31
2022-12-31T08:06:29.507Z,12.35
2022-12-31T08:11:54.249Z,12.36
2022-12-31T08:17:00.683Z,12.50
2022-12-31T08:22:15.321Z,12.62
2022-12-31T08:27:49.388Z,12.69
2022-12-31T08:33:19.013Z,12.78
2022-12-31T08:38:57.720Z,12.79
2022-12-31T08:44:24.180Z,12.83
2022-12-31T08:49:32.681Z,12.80
2022-12-31T08:54:38.790Z,12.82
2022-12-31T09:00:08.352Z,12.88
2022-12-31T09:05:16.781Z,12.95
2022-12-31T09:10:37.101Z,12.95
2022-12-31T09:15:57.667Z,13.03
2022-12-31T09:21:03.355Z,13.04
2022-12-31T09:26:34.569Z,13.15
2022-12-31T09:32:07.326Z,13.18
2022-12-31T09:37:21.518Z,13.22
2022-12-31T09:42:35.564Z,13.24
2022-12-31T09:48:12.788Z,13.28
2022-12-31T09:53:21.358Z,13.35
2022-12-31T09:58:46.451Z,13.49
2022-12-31T10:03:54.906Z,13.58
2022-12-31T10:09:15.185Z,13.57
2022-12-31T10:14:47.530Z,13.69
2022-12-31T10:20:18.743Z,13.61
2022-12-31T10:25:39.249Z,13.62
2022-12-31T10:30:46.458Z,13.70
2022-12-31T10:35:57.573Z,13.69
2022-12-31T10:41:34.658Z,13.67
2022-12-31T10:46:58.135Z,13.65
2022-12-31T10:52:42.099Z,13.76
2022-12-31T10:58:05.804Z,13.76
2022-12-31T11:03:41.514Z,13.82
2022-12-31T11:09:09.521Z,13.82
2022-12-31T11:14:42.428Z,13.80
2022-12-31T11:20:10.734Z,13.90
2022-12-31T11:25:31.420Z,13.95
2022-12-31T11:30:56.030Z,13.95
2022-12-31T11:36:27.502Z,14.11
2022-12-31T11:41:41.949Z,14.22
2022-12-31T11:46:59.225Z,14.37
2022-12-31T11:52:21.758Z,14.40
2022-12-31T11:57:36.403Z,14.51
2022-12-31T12:02:47.397Z,14.65
2022-12-31T12:07:54.261Z,14.69
2022-12-31T12:13:00.888Z,14.69
2022-12-31T12:18:12.054Z,14.73
2022-12-31T12:23:28.018Z,14.84
2022-12-31T12:28:45.360Z,14.77
2022-12-31T12:33:52.540Z,15.32
2022-12-31T12:39:06.313Z,15.53
2022-12-31T12:44:16.922Z,15.63
2022-12-31T12:49:34.015Z,15.65
2022-12-31T12:54:44.988Z,15.68
2022-12-31T13:00:06.728Z,15.31
2022-12-31T13:05:31.710Z,15.14
2022-12-31T13:10:58.595Z,14.98
2022-12-31T13:16:16.138Z,14.92
2022-12-31T13:21:47.114Z,14.85
2022-12-31T13:27:21.275Z,14.87
2022-12-31T13:32:29.780Z,14.86
2022-12-31T13:37:40.920Z,14.85
2022-12-31T13:42:49.360Z,14.84
2022-12-31T13:47:57.885Z,14.80
2022-12-31T13:53:18.725Z,14.75
2022-12-31T13:58:32.744Z,14.75
2022-12-31T14:03:44.150Z,14.71
2022-12-31T14:08:49.694Z,14.75
2022-12-31T14:14:00.614Z,14.86
2022-12-31T14:19:32.356Z,14.97
2022-12-31T14:24:52.158Z,15.05
2022-12-31T14:30:18.806Z,15.13
2022-12-31T14:35:43.787Z,15.20
2022-12-31T14:41:17.467Z,15.20
2022-12-31T14:46:50.107Z,15.19
2022-12-31T14:51:55.553Z,15.24
2022-12-31T14:57:13.176Z,15.33
2022-12-31T15:02:30.551Z,15.18
2022-12-31T15:07:45.835Z,15.08
2022-12-31T15:12:54.272Z,15.03
2022-12-31T15:18:08.589Z,14.98
2022-12-31T15:23:22.925Z,14.95
2022-12-31T15:28:40.688Z,14.90
2022-12-31T15:34:07.489Z,14.82
2022-12-31T15:39:15.932Z,14.75
2022-12-31T15:44:46.790Z,14.83
2022-12-31T15:49:54.157Z,14.87
2022-12-31T15:55:01.464Z,14.97
2022-12-31T16:00:22.350Z,15.00
2022-12-31T16:05:29.005Z,15.02
2022-12-31T16:10:34.752Z,15.02
2022-12-31T16:15:41.324Z,15.04
2022-12-31T16:20:48.684Z,15.06
2022-12-31T16:25:58.486Z,15.06
2022-12-31T16:31:07.208Z,14.99
2022-12-31T16:36:24.867Z,15.01
2022-12-31T16:41:33.303Z,14.98
2022-12-31T16:46:39.063Z,15.04
2022-12-31T16:51:45.417Z,15.01
2022-12-31T16:56:51.242Z,15.14
2022-12-31T17:01:59.903Z,15.18
2022-12-31T17:07:28.280Z,15.13
2022-12-31T17:12:53.097Z,15.15
2022-12-31T17:17:42.606Z,15.14
2022-12-31T17:22:48.138Z,15.18
2022-12-31T17:27:59.276Z,15.24
2022-12-31T17:33:07.745Z,15.33
2022-12-31T17:38:25.704Z,15.35
2022-12-31T17:43:35.402Z,15.40
2022-12-31T17:48:42.561Z,15.48
2022-12-31T17:53:48.192Z,15.57
2022-12-31T17:58:55.227Z,15.65
2022-12-31T18:04:00.736Z,15.74
2022-12-31T18:09:06.196Z,15.78
2022-12-31T18:14:17.051Z,15.86
2022-12-31T18:24:29.779Z,15.99
2022-12-31T18:29:35.381Z,16.02
2022-12-31T18:34:40.858Z,16.17
2022-12-31T18:39:46.682Z,16.22
2022-12-31T18:44:52.228Z,16.35
2022-12-31T18:49:57.618Z,16.44
2022-12-31T18:55:03.159Z,16.49
2022-12-31T19:00:09.946Z,16.52
2022-12-31T19:05:23.901Z,16.50
2022-12-31T19:10:30.124Z,16.44
2022-12-31T19:15:41.149Z,16.52
2022-12-31T19:20:47.163Z,16.55
2022-12-31T19:25:53.244Z,16.60
2022-12-31T19:30:58.761Z,16.70
2022-12-31T19:36:04.695Z,16.67
2022-12-31T19:41:13.104Z,16.73
2022-12-31T19:46:20.251Z,16.72
2022-12-31T19:51:25.813Z,16.78
2022-12-31T19:56:31.239Z,16.83
2022-12-31T20:01:37.044Z,16.83
2022-12-31T20:06:42.837Z,16.94
2022-12-31T20:11:48.314Z,16.92
2022-12-31T20:16:54.179Z,16.87
2022-12-31T20:22:00.434Z,16.87
2022-12-31T20:27:09.180Z,16.90
2022-12-31T20:32:14.881Z,16.92
2022-12-31T20:37:20.401Z,16.95
2022-12-31T20:42:25.941Z,16.92
2022-12-31T20:47:31.418Z,16.92
2022-12-31T20:52:36.904Z,16.96
2022-12-31T20:57:42.652Z,16.95
2022-12-31T21:02:56.621Z,16.98
2022-12-31T21:07:55.365Z,16.98
2022-12-31T21:13:00.785Z,16.97
2022-12-31T21:18:08.156Z,16.88
2022-12-31T21:23:13.604Z,16.80
2022-12-31T21:28:19.080Z,16.71
2022-12-31T21:33:24.613Z,16.77
2022-12-31T21:38:29.999Z,16.71
2022-12-31T21:43:35.886Z,16.66
2022-12-31T21:48:41.313Z,16.67
2022-12-31T21:53:46.778Z,16.65
2022-12-31T21:59:15.400Z,16.62
2022-12-31T22:04:59.881Z,16.59
2022-12-31T22:09:28.344Z,16.57
2022-12-31T22:14:33.730Z,16.42
2022-12-31T22:20:01.038Z,16.48
2022-12-31T22:24:46.284Z,16.48
2022-12-31T22:29:51.742Z,16.47
2022-12-31T22:34:58.366Z,16.42
2022-12-31T22:40:03.991Z,16.43
2022-12-31T22:45:10.638Z,16.45
2022-12-31T22:50:16.238Z,16.42
2022-12-31T22:55:22.761Z,16.47
2022-12-31T23:00:34.034Z,16.46
2022-12-31T23:05:39.509Z,16.51
2022-12-31T23:11:00.325Z,16.50
2022-12-31T23:16:24.976Z,16.52
2022-12-31T23:21:48.718Z,16.47
2022-12-31T23:26:54.245Z,16.43
2022-12-31T23:31:59.788Z,16.38
2022-12-31T23:37:05.860Z,16.37
2022-12-31T23:42:11.316Z,16.33
2022-12-31T23:47:16.765Z,16.34
2022-12-31T23:52:22.174Z,16.34
2022-12-31T23:57:27.571Z,16.26
